sensor_id;sensor_type;location;lat;lon;timestamp;pressure;altitude;pressure_sealevel;temperature;humidity
64211;BME280;73293;48.538;14.354;2023-12-07T06:58:14;94003.30;;;-1.07;100.00
64211;BME280;73293;48.538;14.354;2023-12-07T06:58:48;94006.57;;;-1.07;100.00
64211;BME280;73293;48.538;14.354;2023-12-07T06:59:22;94001.33;;;-1.06;100.00
64211;BME280;73293;48.538;14.354;2023-12-07T06:59:58;93999.05;;;-1.04;100.00
64211;BME280;73293;48.538;14.354;2023-12-07T07:00:32;94001.21;;;-1.03;100.00
64211;BME280;73293;48.538;14.354;2023-12-07T07:01:07;94000.38;;;-0.99;100.00
64211;BME280;73293;48.538;14.354;2023-12-07T07:01:50;93998.60;;;-0.92;100.00
64211;BME280;73293;48.538;14.354;2023-12-07T07:02:28;94000.48;;;-0.91;100.00
64211;BME280;73293;48.538;14.354;2023-12-07T07:03:02;93997.83;;;-0.86;100.00
64211;BME280;73293;48.538;14.354;2023-12-07T07:03:36;93997.92;;;-0.85;100.00
64211;BME280;73293;48.538;14.354;2023-12-07T07:04:13;94003.52;;;-0.83;100.00
64211;BME280;73293;48.538;14.354;2023-12-07T07:04:53;94001.79;;;-0.74;100.00
64211;BME280;73293;48.538;14.354;2023-12-07T07:05:36;94006.00;;;-0.64;100.00
64211;BME280;73293;48.538;14.354;2023-12-07T07:06:11;94007.02;;;-0.67;100.00
64211;BME280;73293;48.538;14.354;2023-12-07T07:06:45;94008.34;;;-0.62;100.00
64211;BME280;73293;48.538;14.354;2023-12-07T07:07:19;94012.61;;;-0.57;100.00
64211;BME280;73293;48.538;14.354;2023-12-07T07:07:53;94014.58;;;-0.55;100.00
64211;BME280;73293;48.538;14.354;2023-12-07T07:08:28;94012.16;;;-0.51;100.00
64211;BME280;73293;48.538;14.354;2023-12-07T07:09:14;94011.40;;;-0.56;100.00
64211;BME280;73293;48.538;14.354;2023-12-07T07:09:49;94014.94;;;-0.58;100.00
64211;BME280;73293;48.538;14.354;2023-12-07T07:10:22;94017.25;;;-0.48;100.00
64211;BME280;73293;48.538;14.354;2023-12-07T07:10:57;94019.52;;;-0.38;100.00
64211;BME280;73293;48.538;14.354;2023-12-07T07:11:31;94020.13;;;-0.39;100.00
64211;BME280;73293;48.538;14.354;2023-12-07T07:12:04;94017.60;;;-0.44;100.00
64211;BME280;73293;48.538;14.354;2023-12-07T07:13:01;94017.23;;;-0.33;100.00
64211;BME280;73293;48.538;14.354;2023-12-07T07:13:37;94018.15;;;-0.35;100.00
64211;BME280;73293;48.538;14.354;2023-12-07T07:14:11;94016.88;;;-0.33;100.00
64211;BME280;73293;48.538;14.354;2023-12-07T07:14:50;94014.48;;;-0.32;100.00
64211;BME280;73293;48.538;14.354;2023-12-07T07:15:24;94018.09;;;-0.29;100.00
64211;BME280;73293;48.538;14.354;2023-12-07T07:16:34;94012.77;;;-0.38;100.00
64211;BME280;73293;48.538;14.354;2023-12-07T07:17:07;94015.30;;;-0.33;100.00
64211;BME280;73293;48.538;14.354;2023-12-07T07:17:41;94017.95;;;-0.26;100.00
64211;BME280;73293;48.538;14.354;2023-12-07T07:18:15;94016.02;;;-0.30;100.00
64211;BME280;73293;48.538;14.354;2023-12-07T07:18:51;94018.19;;;-0.28;100.00
64211;BME280;73293;48.538;14.354;2023-12-07T07:19:25;94014.80;;;-0.17;100.00
64211;BME280;73293;48.538;14.354;2023-12-07T07:20:14;94012.99;;;-0.13;100.00
64211;BME280;73293;48.538;14.354;2023-12-07T07:20:48;94015.52;;;-0.26;100.00
64211;BME280;73293;48.538;14.354;2023-12-07T07:21:22;94016.84;;;-0.11;100.00
64211;BME280;73293;48.538;14.354;2023-12-07T07:21:56;94014.23;;;-0.08;100.00
64211;BME280;73293;48.538;14.354;2023-12-07T07:22:29;94013.49;;;-0.14;100.00
64211;BME280;73293;48.538;14.354;2023-12-07T07:23:03;94020.61;;;-0.19;100.00
64211;BME280;73293;48.538;14.354;2023-12-07T07:23:56;94015.90;;;-0.16;100.00
64211;BME280;73293;48.538;14.354;2023-12-07T07:24:30;94016.10;;;-0.07;100.00
64211;BME280;73293;48.538;14.354;2023-12-07T07:25:04;94014.69;;;-0.04;100.00
64211;BME280;73293;48.538;14.354;2023-12-07T07:25:39;94015.64;;;-0.00;100.00
64211;BME280;73293;48.538;14.354;2023-12-07T07:26:13;94012.89;;;-0.12;100.00
64211;BME280;73293;48.538;14.354;2023-12-07T07:26:50;94016.77;;;-0.10;100.00
64211;BME280;73293;48.538;14.354;2023-12-07T07:27:35;94018.29;;;-0.07;100.00
64211;BME280;73293;48.538;14.354;2023-12-07T07:28:09;94015.59;;;-0.13;100.00
64211;BME280;73293;48.538;14.354;2023-12-07T07:28:45;94019.71;;;-0.10;100.00
64211;BME280;73293;48.538;14.354;2023-12-07T07:29:19;94022.42;;;-0.04;100.00
64211;BME280;73293;48.538;14.354;2023-12-07T07:29:55;94021.53;;;0.01;100.00
64211;BME280;73293;48.538;14.354;2023-12-07T07:30:31;94021.89;;;0.04;100.00
64211;BME280;73293;48.538;14.354;2023-12-07T07:31:15;94022.16;;;0.06;100.00
64211;BME280;73293;48.538;14.354;2023-12-07T07:31:50;94020.46;;;0.01;100.00
64211;BME280;73293;48.538;14.354;2023-12-07T07:32:24;94023.15;;;0.11;100.00
64211;BME280;73293;48.538;14.354;2023-12-07T07:32:59;94022.07;;;0.11;100.00
64211;BME280;73293;48.538;14.354;2023-12-07T07:33:32;94018.27;;;0.08;100.00
64211;BME280;73293;48.538;14.354;2023-12-07T07:34:07;94019.94;;;0.12;100.00
64211;BME280;73293;48.538;14.354;2023-12-07T07:34:58;94022.02;;;0.12;100.00
64211;BME280;73293;48.538;14.354;2023-12-07T07:35:33;94018.32;;;0.03;100.00
64211;BME280;73293;48.538;14.354;2023-12-07T07:36:07;94022.05;;;0.09;100.00
64211;BME280;73293;48.538;14.354;2023-12-07T07:36:40;94024.70;;;0.03;100.00
64211;BME280;73293;48.538;14.354;2023-12-07T07:37:14;94025.34;;;0.08;100.00
64211;BME280;73293;48.538;14.354;2023-12-07T07:37:48;94021.00;;;-0.01;100.00
64211;BME280;73293;48.538;14.354;2023-12-07T07:38:36;94021.19;;;0.14;100.00
64211;BME280;73293;48.538;14.354;2023-12-07T07:39:09;94022.90;;;0.05;100.00
64211;BME280;73293;48.538;14.354;2023-12-07T07:39:45;94019.15;;;0.10;100.00
64211;BME280;73293;48.538;14.354;2023-12-07T07:40:20;94018.95;;;0.18;100.00
64211;BME280;73293;48.538;14.354;2023-12-07T07:40:54;94017.40;;;0.11;100.00
64211;BME280;73293;48.538;14.354;2023-12-07T07:41:28;94013.34;;;0.12;100.00
64211;BME280;73293;48.538;14.354;2023-12-07T07:42:19;94012.13;;;0.16;100.00
64211;BME280;73293;48.538;14.354;2023-12-07T07:42:52;94018.59;;;0.08;100.00
64211;BME280;73293;48.538;14.354;2023-12-07T07:43:27;94011.03;;;0.18;100.00
64211;BME280;73293;48.538;14.354;2023-12-07T07:44:01;94016.48;;;0.18;100.00
64211;BME280;73293;48.538;14.354;2023-12-07T07:44:37;94015.76;;;0.15;100.00
64211;BME280;73293;48.538;14.354;2023-12-07T07:45:11;94014.91;;;0.19;100.00
64211;BME280;73293;48.538;14.354;2023-12-07T07:46:02;94008.04;;;0.14;100.00
64211;BME280;73293;48.538;14.354;2023-12-07T07:46:40;94014.04;;;0.19;100.00
64211;BME280;73293;48.538;14.354;2023-12-07T07:47:18;94013.16;;;0.19;100.00
64211;BME280;73293;48.538;14.354;2023-12-07T07:47:53;94012.98;;;0.15;100.00
64211;BME280;73293;48.538;14.354;2023-12-07T07:48:27;94014.11;;;0.20;100.00
64211;BME280;73293;48.538;14.354;2023-12-07T07:49:39;94010.29;;;0.33;100.00
64211;BME280;73293;48.538;14.354;2023-12-07T07:50:14;94013.52;;;0.26;100.00
64211;BME280;73293;48.538;14.354;2023-12-07T07:50:52;94012.98;;;0.27;100.00
64211;BME280;73293;48.538;14.354;2023-12-07T07:51:26;94014.73;;;0.31;100.00
64211;BME280;73293;48.538;14.354;2023-12-07T07:52:00;94008.98;;;0.22;100.00
64211;BME280;73293;48.538;14.354;2023-12-07T07:52:34;94009.79;;;0.17;100.00
64211;BME280;73293;48.538;14.354;2023-12-07T07:53:25;94010.90;;;0.36;100.00
64211;BME280;73293;48.538;14.354;2023-12-07T07:53:59;94009.35;;;0.32;100.00
64211;BME280;73293;48.538;14.354;2023-12-07T07:54:33;94008.89;;;0.22;100.00
64211;BME280;73293;48.538;14.354;2023-12-07T07:55:07;94009.55;;;0.29;100.00
64211;BME280;73293;48.538;14.354;2023-12-07T07:55:41;94007.20;;;0.32;100.00
64211;BME280;73293;48.538;14.354;2023-12-07T07:56:16;94010.30;;;0.32;100.00
64211;BME280;73293;48.538;14.354;2023-12-07T07:57:06;94009.49;;;0.22;100.00
64211;BME280;73293;48.538;14.354;2023-12-07T07:57:40;94008.27;;;0.20;100.00
64211;BME280;73293;48.538;14.354;2023-12-07T07:58:14;94011.53;;;0.23;100.00
64211;BME280;73293;48.538;14.354;2023-12-07T07:58:49;94002.69;;;0.22;100.00
64211;BME280;73293;48.538;14.354;2023-12-07T07:59:23;94010.36;;;0.34;100.00
64211;BME280;73293;48.538;14.354;2023-12-07T07:59:57;94007.63;;;0.31;100.00
64211;BME280;73293;48.538;14.354;2023-12-07T08:00:48;94011.11;;;0.36;100.00
64211;BME280;73293;48.538;14.354;2023-12-07T08:01:22;94009.79;;;0.39;100.00
64211;BME280;73293;48.538;14.354;2023-12-07T08:01:57;94016.15;;;0.39;100.00
64211;BME280;73293;48.538;14.354;2023-12-07T08:02:30;94013.77;;;0.33;100.00
64211;BME280;73293;48.538;14.354;2023-12-07T08:03:04;94012.65;;;0.29;100.00
64211;BME280;73293;48.538;14.354;2023-12-07T08:03:38;94017.27;;;0.27;100.00
64211;BME280;73293;48.538;14.354;2023-12-07T08:04:26;94017.73;;;0.24;100.00
64211;BME280;73293;48.538;14.354;2023-12-07T08:04:59;94021.23;;;0.31;100.00
64211;BME280;73293;48.538;14.354;2023-12-07T08:05:33;94024.80;;;0.40;100.00
64211;BME280;73293;48.538;14.354;2023-12-07T08:06:08;94014.78;;;0.41;100.00
64211;BME280;73293;48.538;14.354;2023-12-07T08:06:42;94024.27;;;0.39;100.00
64211;BME280;73293;48.538;14.354;2023-12-07T08:07:16;94026.69;;;0.32;100.00
64211;BME280;73293;48.538;14.354;2023-12-07T08:08:07;94025.84;;;0.32;100.00
64211;BME280;73293;48.538;14.354;2023-12-07T08:08:41;94025.29;;;0.35;100.00
64211;BME280;73293;48.538;14.354;2023-12-07T08:09:15;94022.77;;;0.31;100.00
64211;BME280;73293;48.538;14.354;2023-12-07T08:09:51;94025.11;;;0.40;100.00
64211;BME280;73293;48.538;14.354;2023-12-07T08:10:26;94022.24;;;0.46;100.00
64211;BME280;73293;48.538;14.354;2023-12-07T08:11:01;94026.27;;;0.42;100.00
64211;BME280;73293;48.538;14.354;2023-12-07T08:11:47;94026.20;;;0.42;100.00
64211;BME280;73293;48.538;14.354;2023-12-07T08:12:22;94025.71;;;0.55;100.00
64211;BME280;73293;48.538;14.354;2023-12-07T08:12:56;94025.02;;;0.43;100.00
64211;BME280;73293;48.538;14.354;2023-12-07T08:13:30;94024.55;;;0.42;100.00
64211;BME280;73293;48.538;14.354;2023-12-07T08:14:03;94027.80;;;0.49;100.00
64211;BME280;73293;48.538;14.354;2023-12-07T08:14:37;94027.23;;;0.58;100.00
64211;BME280;73293;48.538;14.354;2023-12-07T08:15:25;94021.14;;;0.57;100.00
64211;BME280;73293;48.538;14.354;2023-12-07T08:15:59;94027.98;;;0.57;100.00
64211;BME280;73293;48.538;14.354;2023-12-07T08:16:34;94028.81;;;0.50;100.00
64211;BME280;73293;48.538;14.354;2023-12-07T08:17:08;94029.35;;;0.49;100.00
64211;BME280;73293;48.538;14.354;2023-12-07T08:17:43;94028.31;;;0.52;100.00
64211;BME280;73293;48.538;14.354;2023-12-07T08:18:17;94028.39;;;0.48;100.00
64211;BME280;73293;48.538;14.354;2023-12-07T08:19:07;94023.55;;;0.48;100.00
64211;BME280;73293;48.538;14.354;2023-12-07T08:19:42;94030.56;;;0.44;100.00
64211;BME280;73293;48.538;14.354;2023-12-07T08:20:16;94027.00;;;0.55;100.00
64211;BME280;73293;48.538;14.354;2023-12-07T08:20:50;94030.42;;;0.49;100.00
64211;BME280;73293;48.538;14.354;2023-12-07T08:21:24;94031.28;;;0.47;100.00
64211;BME280;73293;48.538;14.354;2023-12-07T08:22:03;94027.36;;;0.39;100.00
64211;BME280;73293;48.538;14.354;2023-12-07T08:22:46;94030.81;;;0.54;100.00
64211;BME280;73293;48.538;14.354;2023-12-07T08:23:20;94026.81;;;0.42;100.00
64211;BME280;73293;48.538;14.354;2023-12-07T08:23:54;94031.14;;;0.42;100.00
64211;BME280;73293;48.538;14.354;2023-12-07T08:24:27;94030.38;;;0.47;100.00
64211;BME280;73293;48.538;14.354;2023-12-07T08:25:02;94033.98;;;0.49;100.00
64211;BME280;73293;48.538;14.354;2023-12-07T08:25:43;94027.36;;;0.55;100.00
64211;BME280;73293;48.538;14.354;2023-12-07T08:26:27;94030.37;;;0.60;100.00
64211;BME280;73293;48.538;14.354;2023-12-07T08:27:01;94032.98;;;0.49;100.00
64211;BME280;73293;48.538;14.354;2023-12-07T08:27:38;94036.35;;;0.45;100.00
64211;BME280;73293;48.538;14.354;2023-12-07T08:28:14;94039.03;;;0.53;100.00
64211;BME280;73293;48.538;14.354;2023-12-07T08:28:48;94029.85;;;0.50;100.00
64211;BME280;73293;48.538;14.354;2023-12-07T08:29:23;94031.21;;;0.41;100.00
64211;BME280;73293;48.538;14.354;2023-12-07T08:30:10;94029.68;;;0.53;100.00
64211;BME280;73293;48.538;14.354;2023-12-07T08:30:45;94029.02;;;0.50;100.00
64211;BME280;73293;48.538;14.354;2023-12-07T08:31:19;94031.35;;;0.52;100.00
64211;BME280;73293;48.538;14.354;2023-12-07T08:31:53;94025.85;;;0.51;99.98
64211;BME280;73293;48.538;14.354;2023-12-07T08:32:27;94032.35;;;0.50;100.00
64211;BME280;73293;48.538;14.354;2023-12-07T08:33:01;94029.27;;;0.51;100.00
64211;BME280;73293;48.538;14.354;2023-12-07T08:33:49;94024.70;;;0.59;99.79
64211;BME280;73293;48.538;14.354;2023-12-07T08:34:24;94031.56;;;0.46;100.00
64211;BME280;73293;48.538;14.354;2023-12-07T08:34:59;94028.41;;;0.49;100.00
64211;BME280;73293;48.538;14.354;2023-12-07T08:35:33;94025.83;;;0.40;100.00
64211;BME280;73293;48.538;14.354;2023-12-07T08:36:07;94031.79;;;0.46;100.00
64211;BME280;73293;48.538;14.354;2023-12-07T08:36:44;94030.01;;;0.43;100.00
64211;BME280;73293;48.538;14.354;2023-12-07T08:37:28;94031.89;;;0.39;100.00
64211;BME280;73293;48.538;14.354;2023-12-07T08:38:02;94033.67;;;0.50;100.00
64211;BME280;73293;48.538;14.354;2023-12-07T08:38:38;94027.64;;;0.57;100.00
64211;BME280;73293;48.538;14.354;2023-12-07T08:39:11;94031.17;;;0.51;99.97
64211;BME280;73293;48.538;14.354;2023-12-07T08:39:45;94031.98;;;0.50;100.00
64211;BME280;73293;48.538;14.354;2023-12-07T08:40:19;94031.70;;;0.49;100.00
64211;BME280;73293;48.538;14.354;2023-12-07T08:41:11;94030.11;;;0.58;99.77
64211;BME280;73293;48.538;14.354;2023-12-07T08:41:47;94031.70;;;0.48;99.95
64211;BME280;73293;48.538;14.354;2023-12-07T08:42:23;94030.61;;;0.44;100.00
64211;BME280;73293;48.538;14.354;2023-12-07T08:42:58;94029.02;;;0.50;100.00
64211;BME280;73293;48.538;14.354;2023-12-07T08:43:34;94029.91;;;0.51;100.00
64211;BME280;73293;48.538;14.354;2023-12-07T08:44:08;94031.83;;;0.52;100.00
64211;BME280;73293;48.538;14.354;2023-12-07T08:44:51;94028.23;;;0.61;99.77
64211;BME280;73293;48.538;14.354;2023-12-07T08:45:24;94030.84;;;0.54;99.95
64211;BME280;73293;48.538;14.354;2023-12-07T08:45:58;94031.86;;;0.47;100.00
64211;BME280;73293;48.538;14.354;2023-12-07T08:46:34;94032.11;;;0.53;100.00
64211;BME280;73293;48.538;14.354;2023-12-07T08:47:10;94030.58;;;0.51;100.00
64211;BME280;73293;48.538;14.354;2023-12-07T08:47:49;94031.13;;;0.54;99.86
64211;BME280;73293;48.538;14.354;2023-12-07T08:48:33;94029.97;;;0.56;99.55
64211;BME280;73293;48.538;14.354;2023-12-07T08:49:11;94027.05;;;0.49;99.63
64211;BME280;73293;48.538;14.354;2023-12-07T08:49:44;94033.21;;;0.42;100.00
64211;BME280;73293;48.538;14.354;2023-12-07T08:50:18;94029.98;;;0.47;100.00
64211;BME280;73293;48.538;14.354;2023-12-07T08:50:54;94036.55;;;0.52;99.77
64211;BME280;73293;48.538;14.354;2023-12-07T08:51:28;94030.70;;;0.42;99.89
64211;BME280;73293;48.538;14.354;2023-12-07T08:52:13;94036.91;;;0.37;100.00
64211;BME280;73293;48.538;14.354;2023-12-07T08:53:07;94030.52;;;0.42;100.00
64211;BME280;73293;48.538;14.354;2023-12-07T08:53:41;94034.92;;;0.56;100.00
64211;BME280;73293;48.538;14.354;2023-12-07T08:54:15;94033.69;;;0.56;100.00
64211;BME280;73293;48.538;14.354;2023-12-07T08:54:48;94033.06;;;0.59;99.98
64211;BME280;73293;48.538;14.354;2023-12-07T08:55:53;94034.48;;;0.62;99.75
64211;BME280;73293;48.538;14.354;2023-12-07T08:56:26;94034.46;;;0.56;99.60
64211;BME280;73293;48.538;14.354;2023-12-07T08:57:01;94029.31;;;0.52;99.65
64211;BME280;73293;48.538;14.354;2023-12-07T08:57:35;94035.60;;;0.56;99.69
64211;BME280;73293;48.538;14.354;2023-12-07T08:58:10;94035.16;;;0.65;99.06
64211;BME280;73293;48.538;14.354;2023-12-07T08:58:45;94036.39;;;0.65;98.62
64211;BME280;73293;48.538;14.354;2023-12-07T08:59:34;94034.35;;;0.64;98.83
64211;BME280;73293;48.538;14.354;2023-12-07T09:00:08;94034.91;;;0.57;98.67
64211;BME280;73293;48.538;14.354;2023-12-07T09:00:43;94034.87;;;0.60;98.64
64211;BME280;73293;48.538;14.354;2023-12-07T09:01:18;94038.96;;;0.58;98.76
64211;BME280;73293;48.538;14.354;2023-12-07T09:02:04;94041.49;;;0.49;99.43
64211;BME280;73293;48.538;14.354;2023-12-07T09:03:26;94039.48;;;0.55;99.37
64211;BME280;73293;48.538;14.354;2023-12-07T09:04:01;94042.89;;;0.49;99.37
64211;BME280;73293;48.538;14.354;2023-12-07T09:04:35;94038.67;;;0.43;99.95
64211;BME280;73293;48.538;14.354;2023-12-07T09:05:09;94046.67;;;0.59;99.20
64211;BME280;73293;48.538;14.354;2023-12-07T09:05:44;94045.17;;;0.55;99.07
64211;BME280;73293;48.538;14.354;2023-12-07T09:06:18;94046.33;;;0.48;99.60
64211;BME280;73293;48.538;14.354;2023-12-07T09:07:06;94044.67;;;0.49;99.93
64211;BME280;73293;48.538;14.354;2023-12-07T09:07:41;94047.77;;;0.49;100.00
64211;BME280;73293;48.538;14.354;2023-12-07T09:08:15;94046.71;;;0.46;100.00
64211;BME280;73293;48.538;14.354;2023-12-07T09:08:49;94048.20;;;0.40;100.00
64211;BME280;73293;48.538;14.354;2023-12-07T09:09:23;94047.53;;;0.42;100.00
64211;BME280;73293;48.538;14.354;2023-12-07T09:10:00;94048.91;;;0.48;100.00
64211;BME280;73293;48.538;14.354;2023-12-07T09:11:04;94049.02;;;0.79;99.77
64211;BME280;73293;48.538;14.354;2023-12-07T09:11:38;94051.16;;;0.68;99.38
64211;BME280;73293;48.538;14.354;2023-12-07T09:12:11;94050.08;;;0.64;99.60
64211;BME280;73293;48.538;14.354;2023-12-07T09:12:45;94047.42;;;0.62;100.00
64211;BME280;73293;48.538;14.354;2023-12-07T09:13:20;94051.42;;;0.74;99.23
64211;BME280;73293;48.538;14.354;2023-12-07T09:14:23;94052.44;;;0.79;98.55
64211;BME280;73293;48.538;14.354;2023-12-07T09:14:57;94050.49;;;0.74;98.05
64211;BME280;73293;48.538;14.354;2023-12-07T09:15:31;94053.95;;;0.62;98.38
64211;BME280;73293;48.538;14.354;2023-12-07T09:16:05;94053.02;;;0.61;98.73
64211;BME280;73293;48.538;14.354;2023-12-07T09:16:45;94054.57;;;0.56;99.29
64211;BME280;73293;48.538;14.354;2023-12-07T09:17:19;94050.83;;;0.58;99.16
64211;BME280;73293;48.538;14.354;2023-12-07T09:18:06;94053.21;;;0.61;99.70
64211;BME280;73293;48.538;14.354;2023-12-07T09:18:43;94050.66;;;0.61;99.36
64211;BME280;73293;48.538;14.354;2023-12-07T09:19:20;94054.42;;;0.58;99.40
64211;BME280;73293;48.538;14.354;2023-12-07T09:19:55;94056.38;;;0.69;99.16
64211;BME280;73293;48.538;14.354;2023-12-07T09:20:30;94054.27;;;0.65;98.87
64211;BME280;73293;48.538;14.354;2023-12-07T09:21:42;94052.87;;;0.71;98.77
64211;BME280;73293;48.538;14.354;2023-12-07T09:22:16;94056.05;;;0.55;99.17
64211;BME280;73293;48.538;14.354;2023-12-07T09:22:56;94058.44;;;0.43;99.97
64211;BME280;73293;48.538;14.354;2023-12-07T09:23:31;94055.38;;;0.59;100.00
64211;BME280;73293;48.538;14.354;2023-12-07T09:24:05;94057.42;;;0.61;100.00
64211;BME280;73293;48.538;14.354;2023-12-07T09:24:41;94054.70;;;0.69;99.87
64211;BME280;73293;48.538;14.354;2023-12-07T09:25:29;94053.14;;;0.67;99.42
64211;BME280;73293;48.538;14.354;2023-12-07T09:26:04;94054.58;;;0.73;99.11
64211;BME280;73293;48.538;14.354;2023-12-07T09:26:38;94052.13;;;0.66;99.08
64211;BME280;73293;48.538;14.354;2023-12-07T09:27:13;94054.14;;;0.59;99.63
64211;BME280;73293;48.538;14.354;2023-12-07T09:27:49;94056.46;;;0.63;99.45
64211;BME280;73293;48.538;14.354;2023-12-07T09:28:26;94056.88;;;0.63;99.59
64211;BME280;73293;48.538;14.354;2023-12-07T09:29:10;94055.33;;;0.65;99.63
64211;BME280;73293;48.538;14.354;2023-12-07T09:29:44;94059.05;;;0.66;99.59
64211;BME280;73293;48.538;14.354;2023-12-07T09:30:18;94055.96;;;0.61;99.36
64211;BME280;73293;48.538;14.354;2023-12-07T09:30:52;94057.83;;;0.49;100.00
64211;BME280;73293;48.538;14.354;2023-12-07T09:31:26;94055.20;;;0.55;100.00
64211;BME280;73293;48.538;14.354;2023-12-07T09:32:01;94054.79;;;0.67;99.22
64211;BME280;73293;48.538;14.354;2023-12-07T09:32:52;94058.25;;;0.56;99.86
64211;BME280;73293;48.538;14.354;2023-12-07T09:33:26;94061.39;;;0.50;100.00
64211;BME280;73293;48.538;14.354;2023-12-07T09:34:01;94059.14;;;0.52;100.00
64211;BME280;73293;48.538;14.354;2023-12-07T09:34:45;94058.81;;;0.66;100.00
64211;BME280;73293;48.538;14.354;2023-12-07T09:35:19;94060.13;;;0.79;99.51
64211;BME280;73293;48.538;14.354;2023-12-07T09:36:29;94061.92;;;0.83;98.78
64211;BME280;73293;48.538;14.354;2023-12-07T09:37:07;94062.06;;;0.75;98.44
64211;BME280;73293;48.538;14.354;2023-12-07T09:37:41;94061.21;;;0.75;98.88
64211;BME280;73293;48.538;14.354;2023-12-07T09:38:14;94056.95;;;0.77;98.45
64211;BME280;73293;48.538;14.354;2023-12-07T09:38:48;94059.70;;;0.72;98.66
64211;BME280;73293;48.538;14.354;2023-12-07T09:39:22;94062.05;;;0.68;99.23
64211;BME280;73293;48.538;14.354;2023-12-07T09:40:17;94060.75;;;0.69;99.27
64211;BME280;73293;48.538;14.354;2023-12-07T09:40:53;94059.90;;;0.55;99.99
64211;BME280;73293;48.538;14.354;2023-12-07T09:41:28;94060.30;;;0.78;99.79
64211;BME280;73293;48.538;14.354;2023-12-07T09:42:03;94060.33;;;0.84;98.88
64211;BME280;73293;48.538;14.354;2023-12-07T09:42:37;94057.55;;;0.81;98.87
64211;BME280;73293;48.538;14.354;2023-12-07T09:43:52;94053.75;;;0.87;98.73
64211;BME280;73293;48.538;14.354;2023-12-07T09:44:26;94053.70;;;0.81;98.29
64211;BME280;73293;48.538;14.354;2023-12-07T09:45:00;94056.75;;;0.85;98.45
64211;BME280;73293;48.538;14.354;2023-12-07T09:45:36;94050.77;;;0.92;97.90
64211;BME280;73293;48.538;14.354;2023-12-07T09:46:11;94053.96;;;0.95;97.58
64211;BME280;73293;48.538;14.354;2023-12-07T09:46:46;94052.27;;;0.91;97.55
64211;BME280;73293;48.538;14.354;2023-12-07T09:47:34;94049.75;;;0.93;96.92
64211;BME280;73293;48.538;14.354;2023-12-07T09:48:10;94046.71;;;0.88;96.67
64211;BME280;73293;48.538;14.354;2023-12-07T09:48:44;94041.94;;;0.80;97.62
64211;BME280;73293;48.538;14.354;2023-12-07T09:49:21;94041.65;;;0.87;97.40
64211;BME280;73293;48.538;14.354;2023-12-07T09:49:58;94042.36;;;0.90;96.89
64211;BME280;73293;48.538;14.354;2023-12-07T09:51:12;94041.32;;;0.93;97.20
64211;BME280;73293;48.538;14.354;2023-12-07T09:51:49;94038.92;;;0.78;97.89
64211;BME280;73293;48.538;14.354;2023-12-07T09:52:24;94034.27;;;0.88;97.74
64211;BME280;73293;48.538;14.354;2023-12-07T09:52:58;94041.15;;;0.89;97.43
64211;BME280;73293;48.538;14.354;2023-12-07T09:53:42;94041.12;;;0.90;97.00
64211;BME280;73293;48.538;14.354;2023-12-07T09:54:17;94038.67;;;0.88;97.14
64211;BME280;73293;48.538;14.354;2023-12-07T09:55:02;94042.77;;;0.92;96.66
64211;BME280;73293;48.538;14.354;2023-12-07T09:55:36;94044.20;;;0.83;96.68
64211;BME280;73293;48.538;14.354;2023-12-07T09:56:11;94040.64;;;0.78;96.90
64211;BME280;73293;48.538;14.354;2023-12-07T09:56:46;94043.13;;;0.76;97.51
64211;BME280;73293;48.538;14.354;2023-12-07T09:57:20;94041.59;;;0.83;97.36
64211;BME280;73293;48.538;14.354;2023-12-07T09:57:55;94038.61;;;0.85;96.97
64211;BME280;73293;48.538;14.354;2023-12-07T09:58:40;94043.36;;;0.83;97.43
64211;BME280;73293;48.538;14.354;2023-12-07T09:59:15;94044.82;;;0.68;98.05
64211;BME280;73293;48.538;14.354;2023-12-07T09:59:51;94043.70;;;0.74;98.45
64211;BME280;73293;48.538;14.354;2023-12-07T10:00:25;94044.82;;;0.85;97.93
64211;BME280;73293;48.538;14.354;2023-12-07T10:00:59;94046.20;;;0.91;97.38
64211;BME280;73293;48.538;14.354;2023-12-07T10:01:33;94048.45;;;0.89;97.53
64211;BME280;73293;48.538;14.354;2023-12-07T10:02:25;94041.48;;;0.93;97.28
64211;BME280;73293;48.538;14.354;2023-12-07T10:02:59;94045.38;;;0.85;98.01
64211;BME280;73293;48.538;14.354;2023-12-07T10:03:34;94047.10;;;0.94;97.77
64211;BME280;73293;48.538;14.354;2023-12-07T10:04:21;94048.02;;;0.94;97.93
64211;BME280;73293;48.538;14.354;2023-12-07T10:05:07;94046.33;;;1.00;96.26
64211;BME280;73293;48.538;14.354;2023-12-07T10:05:58;94043.48;;;1.02;96.49
64211;BME280;73293;48.538;14.354;2023-12-07T10:06:44;94041.91;;;1.03;96.20
64211;BME280;73293;48.538;14.354;2023-12-07T10:07:32;94044.38;;;0.92;96.37
64211;BME280;73293;48.538;14.354;2023-12-07T10:08:25;94043.04;;;0.86;97.49
64211;BME280;73293;48.538;14.354;2023-12-07T10:09:04;94042.95;;;0.95;97.73
64211;BME280;73293;48.538;14.354;2023-12-07T10:09:40;94039.81;;;1.02;96.68
64211;BME280;73293;48.538;14.354;2023-12-07T10:10:29;94037.02;;;1.14;96.02
64211;BME280;73293;48.538;14.354;2023-12-07T10:11:07;94024.84;;;0.96;96.39
64211;BME280;73293;48.538;14.354;2023-12-07T10:11:42;94036.64;;;1.03;96.43
64211;BME280;73293;48.538;14.354;2023-12-07T10:12:17;94034.45;;;1.05;96.94
64211;BME280;73293;48.538;14.354;2023-12-07T10:12:55;94033.04;;;1.08;97.06
64211;BME280;73293;48.538;14.354;2023-12-07T10:13:31;94029.90;;;1.09;97.33
64211;BME280;73293;48.538;14.354;2023-12-07T10:14:16;94032.25;;;1.18;97.05
64211;BME280;73293;48.538;14.354;2023-12-07T10:14:50;94038.16;;;1.20;96.66
64211;BME280;73293;48.538;14.354;2023-12-07T10:15:24;94038.04;;;1.30;95.12
64211;BME280;73293;48.538;14.354;2023-12-07T10:16:09;94037.89;;;1.23;94.92
64211;BME280;73293;48.538;14.354;2023-12-07T10:17:01;94035.95;;;1.17;95.37
64211;BME280;73293;48.538;14.354;2023-12-07T10:18:05;94031.81;;;1.05;96.69
64211;BME280;73293;48.538;14.354;2023-12-07T10:18:42;94033.52;;;1.01;97.12